createdAt,value
2024-05-09T00:02:16.172Z,99424.28
2024-05-09T00:05:24.698Z,99419.09
2024-05-09T00:08:30.109Z,99412.47
2024-05-09T00:11:35.623Z,99405.34
2024-05-09T00:14:40.891Z,99416.13
2024-05-09T00:17:46.684Z,99413.00
2024-05-09T00:20:54.901Z,99418.81
2024-05-09T00:24:00.396Z,99418.56
2024-05-09T00:27:05.970Z,99419.38
2024-05-09T00:30:17.802Z,99419.50
2024-05-09T00:33:29.738Z,99427.56
2024-05-09T00:36:37.988Z,99437.00
2024-05-09T00:39:43.119Z,99428.22
2024-05-09T00:42:50.319Z,99434.56
2024-05-09T00:45:57.417Z,99432.22
2024-05-09T00:49:05.317Z,99428.84
2024-05-09T00:52:13.716Z,99427.28
2024-05-09T00:55:20.149Z,99436.53
2024-05-09T00:58:27.248Z,99428.97
2024-05-09T01:01:33.026Z,99434.03
2024-05-09T01:04:38.739Z,99430.44
2024-05-09T01:07:47.175Z,99440.72
2024-05-09T01:10:52.508Z,99430.56
2024-05-09T01:13:59.250Z,99433.97
2024-05-09T01:17:04.659Z,99436.41
2024-05-09T01:20:19.705Z,99434.47
2024-05-09T01:23:31.031Z,99441.22
2024-05-09T01:26:36.758Z,99433.75
2024-05-09T01:29:41.958Z,99435.31
2024-05-09T01:32:47.656Z,99431.72
2024-05-09T01:35:53.112Z,99431.81
2024-05-09T01:39:01.770Z,99436.28
2024-05-09T01:42:07.903Z,99437.66
2024-05-09T01:45:13.957Z,99445.00
2024-05-09T01:48:19.278Z,99438.97
2024-05-09T01:51:25.573Z,99434.81
2024-05-09T01:54:33.442Z,99440.09
2024-05-09T01:57:38.900Z,99441.66
2024-05-09T02:00:45.251Z,99435.38
2024-05-09T02:03:50.937Z,99426.84
2024-05-09T02:06:56.576Z,99434.72
2024-05-09T02:10:10.961Z,99427.41
2024-05-09T02:13:21.733Z,99431.84
2024-05-09T02:16:27.272Z,99431.72
2024-05-09T02:19:33.070Z,99425.88
2024-05-09T02:22:38.695Z,99423.28
2024-05-09T02:25:46.770Z,99434.66
2024-05-09T02:28:52.346Z,99428.16
2024-05-09T02:31:57.802Z,99425.69
2024-05-09T02:35:03.477Z,99421.84
2024-05-09T02:38:08.840Z,99422.38
2024-05-09T02:41:14.329Z,99417.41
2024-05-09T02:44:19.953Z,99421.09
2024-05-09T02:47:23.074Z,99417.94
2024-05-09T02:50:34.648Z,99417.09
2024-05-09T02:53:44.685Z,99425.84
2024-05-09T02:56:49.977Z,99434.81
2024-05-09T02:59:55.473Z,99433.97
2024-05-09T03:02:58.205Z,99421.22
2024-05-09T03:06:05.158Z,99426.88
2024-05-09T03:09:09.705Z,99424.31
2024-05-09T03:12:18.034Z,99423.97
2024-05-09T03:15:22.499Z,99426.09
2024-05-09T03:18:28.266Z,99430.59
2024-05-09T03:21:30.994Z,99431.66
2024-05-09T03:24:36.478Z,99429.78
2024-05-09T03:27:44.441Z,99431.44
2024-05-09T03:30:47.569Z,99435.63
2024-05-09T03:33:53.051Z,99441.63
2024-05-09T03:36:59.818Z,99443.31
2024-05-09T03:40:09.272Z,99439.78
2024-05-09T03:43:20.439Z,99447.47
2024-05-09T03:46:26.366Z,99447.31
2024-05-09T03:49:29.222Z,99437.03
2024-05-09T03:52:34.458Z,99442.22
2024-05-09T03:55:37.572Z,99440.19
2024-05-09T03:58:45.824Z,99448.88
2024-05-09T04:01:49.272Z,99437.81
2024-05-09T04:04:54.697Z,99436.41
2024-05-09T04:08:00.893Z,99443.91
2024-05-09T04:11:03.891Z,99441.72
2024-05-09T04:14:12.514Z,99451.69
2024-05-09T04:17:15.420Z,99452.84
2024-05-09T04:20:32.550Z,99451.28
2024-05-09T04:23:43.459Z,99453.88
2024-05-09T04:26:46.296Z,99455.00
2024-05-09T04:29:54.120Z,99451.38
2024-05-09T04:32:57.242Z,99454.13
2024-05-09T04:36:02.546Z,99456.94
2024-05-09T04:39:05.383Z,99466.72
2024-05-09T04:42:10.557Z,99465.00
2024-05-09T04:45:17.198Z,99455.16
2024-05-09T04:48:22.827Z,99460.63
2024-05-09T04:51:25.732Z,99458.84
2024-05-09T04:54:36.209Z,99470.53
2024-05-09T04:57:40.209Z,99471.41
2024-05-09T05:00:48.220Z,99465.03
2024-05-09T05:03:51.347Z,99472.34
2024-05-09T05:06:59.660Z,99477.59
2024-05-09T05:10:05.832Z,99474.63
2024-05-09T05:13:23.825Z,99484.66
2024-05-09T05:16:32.829Z,99481.19
2024-05-09T05:19:38.261Z,99475.25
2024-05-09T05:22:43.179Z,99481.53
2024-05-09T05:25:51.117Z,99484.94
2024-05-09T05:28:54.162Z,99486.66
2024-05-09T05:32:02.515Z,99492.94
2024-05-09T05:35:05.962Z,99493.81
2024-05-09T05:38:12.835Z,99502.44
2024-05-09T05:41:18.370Z,99505.16
2024-05-09T05:44:21.209Z,99501.31
2024-05-09T05:50:37.712Z,99493.03
2024-05-09T05:53:41.598Z,99489.13
2024-05-09T05:56:46.965Z,99486.94
2024-05-09T05:59:50.054Z,99491.13
2024-05-09T06:02:58.077Z,99493.28
2024-05-09T06:06:06.196Z,99491.69
2024-05-09T06:09:08.893Z,99490.50
2024-05-09T06:12:14.690Z,99487.84
2024-05-09T06:15:17.400Z,99487.75
2024-05-09T06:18:25.945Z,99476.19
2024-05-09T06:21:28.910Z,99476.41
2024-05-09T06:24:34.523Z,99469.38
2024-05-09T06:27:39.790Z,99469.22
2024-05-09T06:30:43.396Z,99467.56
2024-05-09T06:33:51.743Z,99462.38
2024-05-09T06:36:54.790Z,99473.59
2024-05-09T06:40:00.343Z,99475.03
2024-05-09T06:43:03.453Z,99471.94
2024-05-09T06:46:08.711Z,99470.06
2024-05-09T06:49:14.711Z,99466.50
2024-05-09T06:52:20.473Z,99467.13
2024-05-09T06:55:23.292Z,99469.19
2024-05-09T06:58:28.823Z,99470.00
2024-05-09T07:01:34.649Z,99468.09
2024-05-09T07:04:42.602Z,99459.31
2024-05-09T07:07:45.567Z,99461.59
2024-05-09T07:10:51.089Z,99464.03
2024-05-09T07:13:54.243Z,99463.78
2024-05-09T07:17:00.023Z,99466.03
2024-05-09T07:20:16.210Z,99455.97
2024-05-09T07:23:25.503Z,99464.22
2024-05-09T07:26:28.588Z,99458.75
2024-05-09T07:29:37.866Z,99462.88
2024-05-09T07:32:41.516Z,99466.16
2024-05-09T07:35:49.620Z,99471.69
2024-05-09T07:38:52.527Z,99469.56
2024-05-09T07:41:58.729Z,99472.00
2024-05-09T07:45:21.028Z,99464.03
2024-05-09T07:50:00.397Z,99462.72
2024-05-09T07:53:21.838Z,99463.69
2024-05-09T07:55:19.423Z,99461.97
2024-05-09T07:58:27.782Z,99457.31
2024-05-09T08:01:33.465Z,99462.69
2024-05-09T08:04:36.605Z,99455.91
2024-05-09T08:07:45.453Z,99456.06
2024-05-09T08:10:48.347Z,99458.34
2024-05-09T08:13:53.647Z,99458.25
2024-05-09T08:16:57.398Z,99461.72
2024-05-09T08:20:05.500Z,99455.16
2024-05-09T08:23:11.543Z,99459.16
2024-05-09T08:26:16.784Z,99453.19
2024-05-09T08:29:22.306Z,99444.59
2024-05-09T08:32:27.318Z,99448.50
2024-05-09T08:35:35.111Z,99446.34
2024-05-09T08:38:40.626Z,99453.69
2024-05-09T08:41:46.171Z,99445.00
2024-05-09T08:44:52.235Z,99457.69
2024-05-09T08:47:57.006Z,99451.72
2024-05-09T08:51:02.313Z,99450.34
2024-05-09T08:54:10.468Z,99454.34
2024-05-09T08:57:17.634Z,99448.34
2024-05-09T09:00:29.207Z,99454.59
2024-05-09T09:03:40.394Z,99454.00
2024-05-09T09:06:44.912Z,99453.06
2024-05-09T09:09:53.555Z,99454.50
2024-05-09T09:12:58.113Z,99453.66
2024-05-09T09:16:03.921Z,99454.50
2024-05-09T09:19:07.081Z,99456.84
2024-05-09T09:22:14.138Z,99458.31
2024-05-09T09:25:21.160Z,99458.53
2024-05-09T09:28:26.398Z,99458.19
2024-05-09T09:31:30.501Z,99459.00
2024-05-09T09:34:36.692Z,99454.97
2024-05-09T09:37:39.503Z,99457.91
2024-05-09T09:40:50.497Z,99450.34
2024-05-09T09:43:55.184Z,99447.13
2024-05-09T09:47:02.109Z,99443.13
2024-05-09T09:50:11.813Z,99456.22
2024-05-09T09:53:20.100Z,99439.16
2024-05-09T09:56:30.281Z,99448.50
2024-05-09T09:59:38.455Z,99442.84
2024-05-09T10:02:41.388Z,99448.09
2024-05-09T10:05:47.530Z,99437.13
2024-05-09T10:08:53.988Z,99441.59
2024-05-09T10:12:12.405Z,99443.09
2024-05-09T10:15:20.094Z,99426.72
2024-05-09T10:18:30.180Z,99438.94
2024-05-09T10:21:34.244Z,99428.38
2024-05-09T10:24:50.979Z,99429.84
2024-05-09T10:27:57.923Z,99425.06
2024-05-09T10:31:10.297Z,99425.06
2024-05-09T10:34:23.125Z,99427.69
2024-05-09T10:37:27.898Z,99428.69
2024-05-09T10:40:34.658Z,99423.38
2024-05-09T10:43:44.283Z,99420.16
2024-05-09T10:46:50.423Z,99417.00
2024-05-09T10:49:54.557Z,99418.38
2024-05-09T10:53:00.138Z,99409.69
2024-05-09T10:56:03.025Z,99404.63
2024-05-09T10:59:11.184Z,99412.97
2024-05-09T11:02:15.202Z,99402.69
2024-05-09T11:05:21.278Z,99400.06
2024-05-09T11:08:27.226Z,99393.06
2024-05-09T11:11:35.452Z,99402.34
2024-05-09T11:14:40.852Z,99392.09
2024-05-09T11:17:46.509Z,99391.63
2024-05-09T11:20:51.943Z,99391.66
2024-05-09T11:23:58.710Z,99394.50
2024-05-09T11:27:06.887Z,99389.66
2024-05-09T11:30:27.036Z,99392.69
2024-05-09T11:33:39.911Z,99386.13
2024-05-09T11:36:45.824Z,99382.56
2024-05-09T11:39:51.206Z,99388.06
2024-05-09T11:42:54.264Z,99390.31
2024-05-09T11:46:03.601Z,99385.03
2024-05-09T11:49:10.064Z,99383.63
2024-05-09T11:52:15.651Z,99382.81
2024-05-09T11:55:19.000Z,99381.97
2024-05-09T11:58:25.192Z,99378.63
2024-05-09T12:01:33.629Z,99378.56
2024-05-09T12:04:36.776Z,99380.13
2024-05-09T12:07:43.471Z,99378.38
2024-05-09T12:10:49.197Z,99370.31
2024-05-09T12:13:52.535Z,99355.31
2024-05-09T12:17:01.991Z,99365.25
2024-05-09T12:20:14.292Z,99351.22
2024-05-09T12:23:23.951Z,99355.03
2024-05-09T12:26:29.969Z,99363.66
2024-05-09T12:29:34.414Z,99358.63
2024-05-09T12:32:46.183Z,99355.69
2024-05-09T12:35:50.887Z,99357.16
2024-05-09T12:38:56.850Z,99358.91
2024-05-09T12:41:59.556Z,99343.94
2024-05-09T12:45:05.136Z,99341.06
2024-05-09T12:48:12.375Z,99334.25
2024-05-09T12:51:18.680Z,99325.19
2024-05-09T12:54:21.230Z,99334.25
2024-05-09T12:57:27.060Z,99331.38
2024-05-09T13:00:33.735Z,99329.22
2024-05-09T13:03:42.922Z,99327.59
2024-05-09T13:06:45.998Z,99330.81
2024-05-09T13:09:51.631Z,99326.03
2024-05-09T13:12:56.901Z,99320.38
2024-05-09T13:16:00.197Z,99314.63
2024-05-09T13:19:08.333Z,99316.38
2024-05-09T13:22:13.961Z,99312.59
2024-05-09T13:25:16.962Z,99317.66
2024-05-09T13:28:22.900Z,99309.31
2024-05-09T13:31:25.796Z,99306.28
2024-05-09T13:34:34.216Z,99311.91
2024-05-09T13:37:39.729Z,99306.44
2024-05-09T13:40:45.585Z,99307.78
2024-05-09T13:43:48.513Z,99300.81
2024-05-09T13:46:54.255Z,99315.88
2024-05-09T13:49:59.688Z,99301.72
2024-05-09T13:53:07.015Z,99312.31
2024-05-09T13:56:13.443Z,99306.53
2024-05-09T13:59:16.313Z,99304.78
2024-05-09T14:02:21.782Z,99302.13
2024-05-09T14:05:27.521Z,99292.41
2024-05-09T14:08:33.029Z,99282.16
2024-05-09T14:11:38.840Z,99285.88
2024-05-09T14:14:41.699Z,99285.00
2024-05-09T14:17:47.502Z,99278.34
2024-05-09T14:20:55.399Z,99278.41
2024-05-09T14:23:58.359Z,99285.06
2024-05-09T14:27:04.565Z,99288.88
2024-05-09T14:30:18.374Z,99292.13
2024-05-09T14:33:31.481Z,99289.47
2024-05-09T14:36:37.568Z,99290.00
2024-05-09T14:39:42.843Z,99281.56
2024-05-09T14:42:48.511Z,99288.31
2024-05-09T14:45:51.297Z,99288.50
2024-05-09T14:48:58.407Z,99283.00
2024-05-09T14:52:07.120Z,99272.78
2024-05-09T14:55:12.252Z,99263.69
2024-05-09T14:58:18.193Z,99263.00
2024-05-09T15:01:23.994Z,99255.13
2024-05-09T15:04:29.976Z,99257.97
2024-05-09T15:07:35.672Z,99251.41
2024-05-09T15:10:41.451Z,99249.19
2024-05-09T15:13:44.397Z,99244.16
2024-05-09T15:16:50.681Z,99233.53
2024-05-09T15:19:53.936Z,99236.03
2024-05-09T15:23:01.937Z,99237.34
2024-05-09T15:26:05.400Z,99228.72
2024-05-09T15:29:10.756Z,99216.25
2024-05-09T15:32:14.716Z,99215.91
2024-05-09T15:35:20.117Z,99215.06
2024-05-09T15:38:27.591Z,99218.25
2024-05-09T15:41:33.026Z,99216.50
2024-05-09T15:44:36.006Z,99214.00
2024-05-09T15:47:41.304Z,99199.75
2024-05-09T15:50:44.715Z,99203.03
2024-05-09T15:53:52.828Z,99207.63
2024-05-09T15:56:55.834Z,99204.41
2024-05-09T16:00:01.291Z,99195.59
2024-05-09T16:03:07.785Z,99194.63
2024-05-09T16:06:13.758Z,99197.44
2024-05-09T16:09:21.216Z,99191.94
2024-05-09T16:12:26.563Z,99190.25
2024-05-09T16:15:29.569Z,99198.91
2024-05-09T16:18:35.249Z,99192.88
2024-05-09T16:21:38.466Z,99189.63
2024-05-09T16:24:46.620Z,99191.19
2024-05-09T16:27:51.206Z,99186.13
2024-05-09T16:30:56.712Z,99191.53
2024-05-09T16:33:59.809Z,99185.31
2024-05-09T16:37:06.630Z,99185.38
2024-05-09T16:40:21.443Z,99191.91
2024-05-09T16:43:31.188Z,99193.78
2024-05-09T16:46:34.401Z,99201.25
2024-05-09T16:49:40.071Z,99190.44
2024-05-09T16:52:43.241Z,99183.84
2024-05-09T16:55:51.205Z,99190.06
2024-05-09T16:58:54.042Z,99185.19
2024-05-09T17:02:00.161Z,99181.59
2024-05-09T17:05:03.712Z,99183.56
2024-05-09T17:08:10.439Z,99180.19
2024-05-09T17:11:18.685Z,99190.69
2024-05-09T17:14:24.262Z,99193.06
2024-05-09T17:17:30.151Z,99183.13
2024-05-09T17:20:37.255Z,99180.88
2024-05-09T17:23:40.948Z,99173.03
2024-05-09T17:26:49.656Z,99181.06
2024-05-09T17:29:52.683Z,99184.81
2024-05-09T17:32:58.185Z,99183.81
2024-05-09T17:36:03.877Z,99190.22
2024-05-09T17:39:06.612Z,99182.19
2024-05-09T17:42:15.097Z,99187.72
2024-05-09T17:45:17.949Z,99184.97
2024-05-09T17:48:23.704Z,99179.66
2024-05-09T17:51:29.145Z,99190.00
2024-05-09T17:54:32.074Z,99187.91
2024-05-09T17:57:40.055Z,99190.63
2024-05-09T18:00:43.088Z,99194.38
2024-05-09T18:03:49.959Z,99188.47
2024-05-09T18:06:53.143Z,99197.34
2024-05-09T18:09:58.655Z,99202.59
2024-05-09T18:13:07.559Z,99206.91
2024-05-09T18:16:13.292Z,99210.38
2024-05-09T18:19:16.699Z,99218.91
2024-05-09T18:22:23.610Z,99213.09
2024-05-09T18:25:27.380Z,99221.97
2024-05-09T18:28:35.556Z,99216.88
2024-05-09T18:31:39.190Z,99219.28
2024-05-09T18:34:44.705Z,99223.09
2024-05-09T18:37:47.795Z,99231.94
2024-05-09T18:40:53.047Z,99232.06
2024-05-09T18:43:59.557Z,99236.31
2024-05-09T18:47:05.234Z,99227.44
2024-05-09T18:50:14.654Z,99238.22
2024-05-09T18:53:26.169Z,99241.91
2024-05-09T18:56:31.759Z,99245.00
2024-05-09T18:59:37.090Z,99245.47
2024-05-09T19:02:42.812Z,99253.84
2024-05-09T19:05:46.442Z,99252.66
2024-05-09T19:08:52.523Z,99248.69
2024-05-09T19:12:00.580Z,99254.69
2024-05-09T19:15:07.197Z,99259.50
2024-05-09T19:18:13.892Z,99269.03
2024-05-09T19:21:17.445Z,99260.63
2024-05-09T19:24:22.850Z,99263.84
2024-05-09T19:27:25.952Z,99262.31
2024-05-09T19:30:39.667Z,99271.22
2024-05-09T19:33:47.876Z,99271.97
2024-05-09T19:36:51.387Z,99277.06
2024-05-09T19:39:57.136Z,99274.69
2024-05-09T19:42:59.938Z,99276.38
2024-05-09T19:46:09.018Z,99274.78
2024-05-09T19:49:11.921Z,99269.50
2024-05-09T19:52:18.421Z,99275.06
2024-05-09T19:55:24.188Z,99278.50
2024-05-09T19:58:29.918Z,99268.19
2024-05-09T20:01:35.592Z,99275.34
2024-05-09T20:04:45.046Z,99268.16
2024-05-09T20:07:47.832Z,99273.84
2024-05-09T20:10:54.049Z,99263.31
2024-05-09T20:13:58.552Z,99266.47
2024-05-09T20:17:07.639Z,99266.75
2024-05-09T20:20:20.766Z,99269.50
2024-05-09T20:23:34.151Z,99261.44
2024-05-09T20:26:37.243Z,99265.41
2024-05-09T20:29:43.254Z,99262.97
2024-05-09T20:32:48.815Z,99268.56
2024-05-09T20:35:55.529Z,99265.31
2024-05-09T20:38:58.274Z,99267.44
2024-05-09T20:42:05.204Z,99260.59
2024-05-09T20:45:11.831Z,99269.56
2024-05-09T20:48:17.750Z,99270.81
2024-05-09T20:51:23.241Z,99273.56
2024-05-09T20:54:26.252Z,99271.53
2024-05-09T20:57:32.104Z,99269.88
2024-05-09T21:00:40.109Z,99264.09
2024-05-09T21:03:51.422Z,99265.75
2024-05-09T21:06:54.503Z,99275.91
2024-05-09T21:10:00.011Z,99269.09
2024-05-09T21:13:03.763Z,99275.53
2024-05-09T21:16:10.796Z,99276.16
2024-05-09T21:19:16.380Z,99277.63
2024-05-09T21:22:21.857Z,99284.22
2024-05-09T21:25:27.713Z,99280.88
2024-05-09T21:28:30.583Z,99279.00
2024-05-09T21:31:36.253Z,99273.44
2024-05-09T21:34:41.566Z,99279.88
2024-05-09T21:37:47.212Z,99276.31
2024-05-09T21:40:52.723Z,99276.50
2024-05-09T21:43:59.490Z,99276.72
2024-05-09T21:47:05.198Z,99274.88
2024-05-09T21:50:22.189Z,99275.31
2024-05-09T21:53:28.904Z,99283.84
2024-05-09T21:56:31.783Z,99276.38
2024-05-09T21:59:37.006Z,99281.56
2024-05-09T22:02:40.507Z,99283.44
2024-05-09T22:05:48.673Z,99282.00
2024-05-09T22:08:51.507Z,99282.81
2024-05-09T22:15:00.140Z,99276.53
2024-05-09T22:18:05.635Z,99273.81
2024-05-09T22:21:14.056Z,99282.13
2024-05-09T22:24:19.426Z,99287.28
2024-05-09T22:27:22.361Z,99282.72
2024-05-09T22:30:34.797Z,99280.84
2024-05-09T22:33:47.152Z,99279.56
2024-05-09T22:36:53.196Z,99270.47
2024-05-09T22:39:58.928Z,99274.97
2024-05-09T22:43:01.519Z,99277.03
2024-05-09T22:46:07.562Z,99276.81
2024-05-09T22:49:10.284Z,99271.59
2024-05-09T22:52:18.611Z,99270.91
2024-05-09T22:55:21.291Z,99267.16
2024-05-09T22:58:26.844Z,99267.91
2024-05-09T23:01:32.209Z,99260.84
2024-05-09T23:04:35.538Z,99269.88
2024-05-09T23:07:43.404Z,99273.59
2024-05-09T23:10:46.411Z,99274.53
2024-05-09T23:13:51.815Z,99271.94
2024-05-09T23:16:57.431Z,99267.28
2024-05-09T23:20:00.330Z,99263.63
2024-05-09T23:23:09.760Z,99258.63
2024-05-09T23:26:16.101Z,99261.50
2024-05-09T23:29:21.628Z,99254.03
2024-05-09T23:32:27.184Z,99258.09
2024-05-09T23:35:30.075Z,99252.66
2024-05-09T23:38:38.138Z,99259.63
2024-05-09T23:41:43.952Z,99253.63
2024-05-09T23:44:46.565Z,99251.13
2024-05-09T23:47:52.258Z,99255.19
2024-05-09T23:50:55.348Z,99263.63
2024-05-09T23:54:03.466Z,99256.19
2024-05-09T23:57:06.110Z,99247.72
